createdAt,value
2023-05-17T00:00:48.579Z,101533.84
2023-05-17T00:03:14.963Z,101533.13
2023-05-17T00:05:41.507Z,101529.72
2023-05-17T00:08:08.094Z,101534.41
2023-05-17T00:10:34.582Z,101541.72
2023-05-17T00:13:00.967Z,101542.69
2023-05-17T00:15:27.526Z,101542.84
2023-05-17T00:17:54.190Z,101536.63
2023-05-17T00:20:20.644Z,101540.44
2023-05-17T00:22:47.377Z,101526.31
2023-05-17T00:25:13.791Z,101534.34
2023-05-17T00:27:40.207Z,101544.38
2023-05-17T00:30:07.514Z,101549.88
2023-05-17T00:32:33.970Z,101554.38
2023-05-17T00:35:00.592Z,101551.84
2023-05-17T00:37:27.080Z,101554.66
2023-05-17T00:39:54.043Z,101545.88
2023-05-17T00:42:20.473Z,101554.81
2023-05-17T00:44:46.927Z,101553.94
2023-05-17T00:47:13.350Z,101549.56
2023-05-17T00:49:40.038Z,101549.56
2023-05-17T00:52:06.681Z,101547.88
2023-05-17T00:54:33.600Z,101551.25
2023-05-17T00:57:01.310Z,101550.41
2023-05-17T00:59:29.443Z,101553.09
2023-05-17T01:01:56.291Z,101549.56
2023-05-17T01:04:23.059Z,101549.69
2023-05-17T01:06:50.211Z,101547.16
2023-05-17T01:09:17.335Z,101542.75
2023-05-17T01:12:19.190Z,101545.44
2023-05-17T01:15:13.753Z,101551.78
2023-05-17T01:17:45.976Z,101558.16
2023-05-17T01:20:26.896Z,101553.75
2023-05-17T01:23:41.962Z,101554.75
2023-05-17T01:26:17.007Z,101564.72
2023-05-17T01:28:46.305Z,101561.31
2023-05-17T01:31:13.193Z,101553.56
2023-05-17T01:33:39.881Z,101553.69
2023-05-17T01:36:06.905Z,101556.50
2023-05-17T01:38:33.299Z,101566.38
2023-05-17T01:41:40.922Z,101562.97
2023-05-17T01:44:33.299Z,101562.25
2023-05-17T01:47:13.884Z,101559.84
2023-05-17T01:49:41.569Z,101560.13
2023-05-17T01:52:09.208Z,101568.44
2023-05-17T01:54:39.836Z,101565.88
2023-05-17T01:57:07.415Z,101575.19
2023-05-17T01:59:35.150Z,101568.25
2023-05-17T02:02:08.778Z,101569.38
2023-05-17T02:04:36.424Z,101576.69
2023-05-17T02:07:03.566Z,101580.34
2023-05-17T02:09:30.816Z,101583.88
2023-05-17T02:11:57.399Z,101583.72
2023-05-17T02:14:23.770Z,101587.13
2023-05-17T02:16:50.143Z,101579.81
2023-05-17T02:19:16.659Z,101581.50
2023-05-17T02:21:43.131Z,101586.84
2023-05-17T02:24:09.533Z,101579.81
2023-05-17T02:26:36.370Z,101583.47
2023-05-17T02:29:02.746Z,101581.78
2023-05-17T02:31:29.763Z,101582.75
2023-05-17T02:33:56.313Z,101591.06
2023-05-17T02:36:22.883Z,101597.53
2023-05-17T02:38:49.308Z,101596.81
2023-05-17T02:41:15.662Z,101590.84
2023-05-17T02:43:42.076Z,101599.16
2023-05-17T02:46:08.435Z,101599.31
2023-05-17T02:48:34.813Z,101604.78
2023-05-17T02:51:01.248Z,101612.09
2023-05-17T02:53:27.674Z,101606.16
2023-05-17T02:55:57.922Z,101611.63
2023-05-17T02:58:25.062Z,101614.56
2023-05-17T03:00:51.875Z,101621.88
2023-05-17T03:03:18.443Z,101622.97
2023-05-17T03:05:44.986Z,101623.13
2023-05-17T03:08:11.365Z,101633.13
2023-05-17T03:10:37.740Z,101629.72
2023-05-17T03:13:04.126Z,101626.31
2023-05-17T03:15:31.051Z,101629.97
2023-05-17T03:17:57.648Z,101634.59
2023-05-17T03:20:24.341Z,101636.56
2023-05-17T03:22:50.749Z,101635.84
2023-05-17T03:25:17.141Z,101643.16
2023-05-17T03:27:43.565Z,101639.75
2023-05-17T03:30:10.352Z,101642.69
2023-05-17T03:32:39.767Z,101655.22
2023-05-17T03:35:06.921Z,101653.66
2023-05-17T03:37:33.345Z,101654.75
2023-05-17T03:39:59.807Z,101654.84
2023-05-17T03:42:26.190Z,101661.19
2023-05-17T03:44:52.621Z,101663.16
2023-05-17T03:47:19.174Z,101659.88
2023-05-17T03:49:45.643Z,101660.97
2023-05-17T03:52:12.016Z,101668.28
2023-05-17T03:54:38.431Z,101666.84
2023-05-17T03:57:05.096Z,101668.91
2023-05-17T03:59:31.505Z,101672.69
2023-05-17T04:01:57.951Z,101679.97
2023-05-17T04:04:24.388Z,101676.59
2023-05-17T04:06:50.873Z,101681.22
2023-05-17T04:09:17.300Z,101678.63
2023-05-17T04:11:44.113Z,101689.34
2023-05-17T04:14:10.548Z,101691.19
2023-05-17T04:16:36.998Z,101693.00
2023-05-17T04:19:03.584Z,101696.53
2023-05-17T04:21:30.022Z,101693.75
2023-05-17T04:23:56.624Z,101694.59
2023-05-17T04:26:24.297Z,101692.75
2023-05-17T04:28:51.184Z,101696.16
2023-05-17T04:31:17.927Z,101704.06
2023-05-17T04:33:44.564Z,101707.47
2023-05-17T04:36:11.479Z,101709.19
2023-05-17T04:38:37.967Z,101708.22
2023-05-17T04:41:05.219Z,101720.38
2023-05-17T04:43:32.747Z,101718.31
2023-05-17T04:46:00.427Z,101722.41
2023-05-17T04:48:27.589Z,101722.06
2023-05-17T04:50:54.487Z,101723.53
2023-05-17T04:53:20.860Z,101731.19
2023-05-17T04:55:48.581Z,101737.97
2023-05-17T04:58:15.081Z,101739.44
2023-05-17T05:00:41.500Z,101742.63
2023-05-17T05:03:08.502Z,101751.25
2023-05-17T05:05:35.556Z,101758.03
2023-05-17T05:08:01.933Z,101757.81
2023-05-17T05:10:28.770Z,101763.75
2023-05-17T05:12:55.267Z,101767.75
2023-05-17T05:15:21.636Z,101770.06
2023-05-17T05:17:48.512Z,101777.75
2023-05-17T05:20:15.535Z,101780.91
2023-05-17T05:22:41.992Z,101778.69
2023-05-17T05:25:09.179Z,101782.69
2023-05-17T05:27:35.809Z,101789.38
2023-05-17T05:30:02.978Z,101788.13
2023-05-17T05:32:29.551Z,101802.00
2023-05-17T05:34:57.081Z,101799.94
2023-05-17T05:37:23.774Z,101797.72
2023-05-17T05:39:50.374Z,101793.78
2023-05-17T05:42:16.839Z,101806.72
2023-05-17T05:44:43.242Z,101815.22
2023-05-17T05:47:09.642Z,101807.53
2023-05-17T05:49:36.073Z,101816.03
2023-05-17T05:52:03.182Z,101815.38
2023-05-17T05:54:29.571Z,101817.53
2023-05-17T05:56:55.980Z,101825.94
2023-05-17T05:59:22.347Z,101815.50
2023-05-17T06:01:48.821Z,101826.44
2023-05-17T06:04:15.380Z,101828.47
2023-05-17T06:06:41.989Z,101831.34
2023-05-17T06:09:12.095Z,101821.78
2023-05-17T06:11:41.783Z,101829.19
2023-05-17T06:14:08.360Z,101837.56
2023-05-17T06:16:34.803Z,101836.03
2023-05-17T06:19:01.327Z,101845.25
2023-05-17T06:21:27.829Z,101848.13
2023-05-17T06:23:54.274Z,101850.03
2023-05-17T06:26:20.740Z,101846.50
2023-05-17T06:28:47.115Z,101852.75
2023-05-17T06:31:13.528Z,101853.66
2023-05-17T06:33:40.076Z,101855.53
2023-05-17T06:36:07.060Z,101864.47
2023-05-17T06:38:33.523Z,101860.25
2023-05-17T06:40:59.923Z,101858.72
2023-05-17T06:43:26.335Z,101866.22
2023-05-17T06:45:52.767Z,101868.34
2023-05-17T06:48:19.284Z,101878.81
2023-05-17T06:50:45.885Z,101881.25
2023-05-17T06:53:12.273Z,101884.91
2023-05-17T06:55:38.835Z,101890.47
2023-05-17T06:58:05.264Z,101884.38
2023-05-17T07:00:32.212Z,101885.50
2023-05-17T07:02:59.202Z,101890.03
2023-05-17T07:05:26.025Z,101898.81
2023-05-17T07:07:52.673Z,101898.38
2023-05-17T07:10:19.206Z,101904.19
2023-05-17T07:12:48.632Z,101898.53
2023-05-17T07:15:15.701Z,101899.84
2023-05-17T07:17:42.123Z,101893.16
2023-05-17T07:20:09.076Z,101895.44
2023-05-17T07:22:37.352Z,101893.19
2023-05-17T07:25:05.144Z,101902.66
2023-05-17T07:27:31.535Z,101907.63
2023-05-17T07:29:58.000Z,101905.22
2023-05-17T07:32:24.604Z,101905.66
2023-05-17T07:34:51.106Z,101919.50
2023-05-17T07:37:17.509Z,101904.22
2023-05-17T07:39:43.878Z,101907.59
2023-05-17T07:42:10.262Z,101912.16
2023-05-17T07:44:36.602Z,101918.25
2023-05-17T07:47:03.033Z,101916.28
2023-05-17T07:49:30.767Z,101921.06
2023-05-17T07:51:57.576Z,101928.56
2023-05-17T07:54:27.159Z,101915.53
2023-05-17T07:56:56.141Z,101930.69
2023-05-17T07:59:23.088Z,101929.16
2023-05-17T08:01:50.328Z,101937.66
2023-05-17T08:04:19.134Z,101944.31
2023-05-17T08:06:46.879Z,101941.31
2023-05-17T08:09:13.272Z,101949.13
2023-05-17T08:11:45.702Z,101958.06
2023-05-17T08:14:14.147Z,101953.53
2023-05-17T08:16:45.845Z,101949.25
2023-05-17T08:19:13.748Z,101954.53
2023-05-17T08:21:42.064Z,101938.91
2023-05-17T08:24:08.969Z,101944.41
2023-05-17T08:26:35.569Z,101943.06
2023-05-17T08:29:02.914Z,101944.31
2023-05-17T08:31:29.495Z,101951.75
2023-05-17T08:33:56.088Z,101943.84
2023-05-17T08:36:22.767Z,101949.22
2023-05-17T08:38:49.216Z,101952.84
2023-05-17T08:41:15.695Z,101964.91
2023-05-17T08:43:43.967Z,101952.78
2023-05-17T08:46:10.856Z,101957.75
2023-05-17T08:48:38.378Z,101960.88
2023-05-17T08:51:06.205Z,101950.47
2023-05-17T08:53:35.369Z,101947.28
2023-05-17T08:56:04.771Z,101963.22
2023-05-17T08:58:51.757Z,101967.28
2023-05-17T09:01:25.944Z,101966.00
2023-05-17T09:03:53.946Z,101969.22
2023-05-17T09:06:22.166Z,101969.06
2023-05-17T09:08:52.744Z,101970.63
2023-05-17T09:11:30.211Z,101975.72
2023-05-17T09:14:04.898Z,101965.44
2023-05-17T09:16:33.659Z,101967.69
2023-05-17T09:19:00.612Z,101964.34
2023-05-17T09:21:28.578Z,101968.00
2023-05-17T09:24:05.556Z,101967.22
2023-05-17T09:26:45.822Z,101968.81
2023-05-17T09:29:15.162Z,101969.19
2023-05-17T09:31:43.009Z,101972.56
2023-05-17T09:34:10.643Z,101966.16
2023-05-17T09:36:38.355Z,101967.16
2023-05-17T09:39:06.488Z,101974.59
2023-05-17T09:41:40.621Z,101976.44
2023-05-17T09:44:10.841Z,101977.31
2023-05-17T09:46:41.672Z,101969.19
2023-05-17T09:49:09.225Z,101973.59
2023-05-17T09:51:40.897Z,101964.13
2023-05-17T09:54:07.792Z,101982.44
2023-05-17T09:56:36.438Z,101963.72
2023-05-17T09:59:04.728Z,101975.75
2023-05-17T10:01:31.771Z,101972.75
2023-05-17T10:04:04.712Z,101968.00
2023-05-17T10:06:44.181Z,101970.91
2023-05-17T10:09:14.566Z,101972.75
2023-05-17T10:11:46.064Z,101975.47
2023-05-17T10:14:18.589Z,101972.59
2023-05-17T10:16:45.619Z,101968.00
2023-05-17T10:19:12.875Z,101970.44
2023-05-17T10:21:41.000Z,101971.09
2023-05-17T10:24:08.344Z,101970.72
2023-05-17T10:26:36.497Z,101965.94
2023-05-17T10:29:04.214Z,101969.63
2023-05-17T10:31:33.335Z,101969.25
2023-05-17T10:34:05.197Z,101959.09
2023-05-17T10:36:33.053Z,101955.09
2023-05-17T10:39:00.201Z,101963.94
2023-05-17T10:41:32.009Z,101975.91
2023-05-17T10:44:01.954Z,101978.34
2023-05-17T10:46:30.243Z,101970.59
2023-05-17T10:48:59.228Z,101968.03
2023-05-17T10:51:38.360Z,101968.53
2023-05-17T10:54:11.852Z,101968.78
2023-05-17T10:56:47.405Z,101975.50
2023-05-17T10:59:19.679Z,101971.28
2023-05-17T11:02:03.514Z,101955.56
2023-05-17T11:04:42.024Z,101964.44
2023-05-17T11:07:17.392Z,101956.03
2023-05-17T11:09:51.705Z,101955.09
2023-05-17T11:12:38.388Z,101955.63
2023-05-17T11:15:08.754Z,101959.53
2023-05-17T11:17:36.764Z,101952.94
2023-05-17T11:20:13.222Z,101941.63
2023-05-17T11:23:02.178Z,101945.72
2023-05-17T11:25:31.797Z,101952.66
2023-05-17T11:27:58.968Z,101951.50
2023-05-17T11:30:28.681Z,101949.97
2023-05-17T11:33:02.508Z,101959.31
2023-05-17T11:35:32.839Z,101940.00
2023-05-17T11:38:22.110Z,101947.16
2023-05-17T11:40:57.763Z,101947.50
2023-05-17T11:43:27.397Z,101958.16
2023-05-17T11:46:01.423Z,101946.81
2023-05-17T11:48:29.907Z,101949.31
2023-05-17T11:50:57.534Z,101944.59
2023-05-17T11:53:25.481Z,101946.09
2023-05-17T11:55:52.827Z,101959.63
2023-05-17T11:58:29.107Z,101948.47
2023-05-17T12:00:58.425Z,101962.69
2023-05-17T12:03:26.821Z,101956.25
2023-05-17T12:06:09.455Z,101947.28
2023-05-17T12:08:39.090Z,101961.31
2023-05-17T12:11:07.202Z,101949.97
2023-05-17T12:13:34.887Z,101944.91
2023-05-17T12:16:09.706Z,101946.25
2023-05-17T12:18:44.003Z,101953.69
2023-05-17T12:21:13.298Z,101943.91
2023-05-17T12:23:44.421Z,101954.66
2023-05-17T12:26:13.268Z,101954.00
2023-05-17T12:28:41.762Z,101949.59
2023-05-17T12:31:13.236Z,101965.50
2023-05-17T12:33:42.113Z,101950.97
2023-05-17T12:36:10.461Z,101966.34
2023-05-17T12:38:39.158Z,101954.84
2023-05-17T12:41:08.314Z,101956.63
2023-05-17T12:43:36.049Z,101970.88
2023-05-17T12:46:11.737Z,101962.38
2023-05-17T12:48:39.988Z,101958.97
2023-05-17T12:51:12.262Z,101971.34
2023-05-17T12:53:44.469Z,101959.84
2023-05-17T12:56:22.474Z,101955.81
2023-05-17T12:59:06.888Z,101950.78
2023-05-17T13:01:37.631Z,101948.41
2023-05-17T13:04:04.484Z,101954.00
2023-05-17T13:06:44.117Z,101960.28
2023-05-17T13:09:10.647Z,101963.66
2023-05-17T13:11:41.168Z,101963.34
2023-05-17T13:14:08.733Z,101953.66
2023-05-17T13:16:38.560Z,101946.22
2023-05-17T13:19:14.543Z,101957.56
2023-05-17T13:21:41.124Z,101957.91
2023-05-17T13:24:10.130Z,101959.09
2023-05-17T13:26:36.591Z,101955.00
2023-05-17T13:29:03.163Z,101948.56
2023-05-17T13:31:29.532Z,101946.56
2023-05-17T13:33:56.360Z,101940.09
2023-05-17T13:36:22.939Z,101943.84
2023-05-17T13:38:49.564Z,101943.50
2023-05-17T13:41:16.347Z,101941.44
2023-05-17T13:43:42.715Z,101934.00
2023-05-17T13:46:09.450Z,101929.28
2023-05-17T13:48:36.131Z,101932.97
2023-05-17T13:51:02.757Z,101934.00
2023-05-17T13:53:29.357Z,101934.00
2023-05-17T13:55:55.994Z,101922.31
2023-05-17T13:58:22.495Z,101924.00
2023-05-17T14:00:49.578Z,101922.81
2023-05-17T14:03:16.033Z,101921.63
2023-05-17T14:05:42.667Z,101933.16
2023-05-17T14:08:09.410Z,101929.78
2023-05-17T14:10:36.419Z,101934.50
2023-05-17T14:13:02.912Z,101927.75
2023-05-17T14:15:29.303Z,101925.19
2023-05-17T14:17:56.004Z,101932.97
2023-05-17T14:20:22.621Z,101930.94
2023-05-17T14:22:48.994Z,101935.03
2023-05-17T14:25:15.419Z,101924.84
2023-05-17T14:27:42.766Z,101937.56
2023-05-17T14:30:11.511Z,101940.47
2023-05-17T14:32:39.366Z,101931.44
2023-05-17T14:35:07.597Z,101938.75
2023-05-17T14:37:34.083Z,101935.03
2023-05-17T14:40:06.433Z,101936.56
2023-05-17T14:42:33.534Z,101945.34
2023-05-17T14:44:59.992Z,101930.94
2023-05-17T14:47:26.571Z,101935.69
2023-05-17T14:49:53.107Z,101943.81
2023-05-17T14:52:19.978Z,101937.06
2023-05-17T14:54:46.450Z,101937.75
2023-05-17T14:57:13.714Z,101940.97
2023-05-17T14:59:40.231Z,101933.47
2023-05-17T15:02:06.727Z,101938.06
2023-05-17T15:04:33.405Z,101932.97
2023-05-17T15:06:59.937Z,101931.44
2023-05-17T15:09:26.508Z,101931.44
2023-05-17T15:11:52.939Z,101940.13
2023-05-17T15:14:22.104Z,101930.59
2023-05-17T15:16:48.902Z,101938.75
2023-05-17T15:19:16.044Z,101934.31
2023-05-17T15:21:42.950Z,101935.69
2023-05-17T15:24:11.723Z,101931.97
2023-05-17T15:26:39.443Z,101942.63
2023-05-17T15:29:06.109Z,101939.59
2023-05-17T15:31:32.739Z,101933.31
2023-05-17T15:33:59.237Z,101929.78
2023-05-17T15:36:25.765Z,101932.66
2023-05-17T15:38:52.120Z,101927.03
2023-05-17T15:41:21.562Z,101926.88
2023-05-17T15:43:48.181Z,101922.28
2023-05-17T15:46:14.645Z,101925.84
2023-05-17T15:48:41.573Z,101937.03
2023-05-17T15:51:08.238Z,101933.78
2023-05-17T15:53:34.826Z,101935.63
2023-05-17T15:56:01.230Z,101922.59
2023-05-17T15:58:28.170Z,101935.16
2023-05-17T16:00:55.081Z,101932.63
2023-05-17T16:03:21.477Z,101935.34
2023-05-17T16:05:48.057Z,101928.75
2023-05-17T16:08:14.503Z,101937.06
2023-05-17T16:10:41.026Z,101940.44
2023-05-17T16:13:07.409Z,101944.00
2023-05-17T16:15:34.225Z,101941.44
2023-05-17T16:18:00.997Z,101956.38
2023-05-17T16:20:28.673Z,101954.16
2023-05-17T16:22:55.119Z,101951.31
2023-05-17T16:25:24.218Z,101953.66
2023-05-17T16:27:51.304Z,101952.28
2023-05-17T16:30:18.491Z,101949.25
2023-05-17T16:32:47.007Z,101953.31
2023-05-17T16:35:14.111Z,101958.06
2023-05-17T16:37:41.529Z,101952.97
2023-05-17T16:40:08.956Z,101944.16
2023-05-17T16:42:35.944Z,101952.81
2023-05-17T16:45:02.646Z,101958.06
2023-05-17T16:47:29.209Z,101948.38
2023-05-17T16:49:56.624Z,101960.22
2023-05-17T16:52:23.109Z,101962.44
2023-05-17T16:54:49.513Z,101962.28
2023-05-17T16:57:16.469Z,101963.13
2023-05-17T16:59:42.892Z,101970.75
2023-05-17T17:02:09.539Z,101964.84
2023-05-17T17:04:36.441Z,101965.50
2023-05-17T17:07:03.468Z,101958.06
2023-05-17T17:09:29.832Z,101962.78
2023-05-17T17:11:56.244Z,101959.69
2023-05-17T17:14:24.164Z,101971.53
2023-05-17T17:16:50.677Z,101970.13
2023-05-17T17:19:17.242Z,101984.00
2023-05-17T17:21:43.775Z,101983.41
2023-05-17T17:24:10.171Z,101979.16
2023-05-17T17:26:36.584Z,101983.34
2023-05-17T17:29:04.704Z,101984.88
2023-05-17T17:31:31.769Z,101986.78
2023-05-17T17:33:58.455Z,101986.34
2023-05-17T17:36:26.005Z,101990.78
2023-05-17T17:38:52.411Z,101989.00
2023-05-17T17:41:18.865Z,101987.88
2023-05-17T17:43:47.809Z,101986.00
2023-05-17T17:46:14.271Z,101985.16
2023-05-17T17:48:40.923Z,101988.06
2023-05-17T17:51:07.893Z,101989.59
2023-05-17T17:53:34.250Z,101989.22
2023-05-17T17:56:00.824Z,101993.63
2023-05-17T17:58:27.173Z,101990.22
2023-05-17T18:00:53.720Z,101985.31
2023-05-17T18:03:20.231Z,101993.47
2023-05-17T18:05:46.603Z,101998.00
2023-05-17T18:08:12.967Z,102003.13
2023-05-17T18:10:39.435Z,101997.34
2023-05-17T18:13:06.052Z,102006.03
2023-05-17T18:15:32.532Z,102003.47
2023-05-17T18:17:59.049Z,102000.06
2023-05-17T18:20:26.191Z,102004.66
2023-05-17T18:22:52.868Z,102005.50
2023-05-17T18:25:19.315Z,102001.94
2023-05-17T18:27:45.883Z,102004.84
2023-05-17T18:30:12.598Z,101996.19
2023-05-17T18:32:39.186Z,102005.72
2023-05-17T18:35:06.152Z,102000.09
2023-05-17T18:37:32.909Z,102000.25
2023-05-17T18:40:01.757Z,102010.44
2023-05-17T18:42:28.834Z,102005.53
2023-05-17T18:44:55.239Z,102012.28
2023-05-17T18:47:23.410Z,102010.19
2023-05-17T18:49:51.797Z,102005.41
2023-05-17T18:52:18.162Z,102008.56
2023-05-17T18:54:45.304Z,102010.06
2023-05-17T18:57:13.910Z,102010.69
2023-05-17T18:59:42.017Z,102006.88
2023-05-17T19:02:08.521Z,102012.03
2023-05-17T19:04:36.523Z,102006.53
2023-05-17T19:07:03.441Z,102007.22
2023-05-17T19:09:30.015Z,102012.81
2023-05-17T19:11:56.552Z,102012.16
2023-05-17T19:14:22.955Z,102012.31
2023-05-17T19:16:51.081Z,102014.31
2023-05-17T19:19:17.616Z,102022.53
2023-05-17T19:21:44.094Z,102024.31
2023-05-17T19:24:10.503Z,102018.84
2023-05-17T19:26:36.936Z,102020.47
2023-05-17T19:29:03.291Z,102024.66
2023-05-17T19:31:29.708Z,102026.13
2023-05-17T19:33:56.970Z,102037.34
2023-05-17T19:36:23.458Z,102028.69
2023-05-17T19:38:51.878Z,102041.63
2023-05-17T19:41:18.489Z,102034.63
2023-05-17T19:43:44.865Z,102042.03
2023-05-17T19:46:12.109Z,102052.78
2023-05-17T19:48:38.553Z,102053.63
2023-05-17T19:51:05.402Z,102052.63
2023-05-17T19:53:40.324Z,102054.16
2023-05-17T19:56:14.662Z,102056.56
2023-05-17T19:58:41.039Z,102051.00
2023-05-17T20:01:07.491Z,102059.75
2023-05-17T20:03:34.205Z,102055.06
2023-05-17T20:06:00.717Z,102061.00
2023-05-17T20:08:27.180Z,102055.28
2023-05-17T20:10:53.606Z,102063.06
2023-05-17T20:13:23.956Z,102059.09
2023-05-17T20:15:50.467Z,102055.94
2023-05-17T20:18:16.878Z,102063.69
2023-05-17T20:20:43.403Z,102062.25
2023-05-17T20:23:10.055Z,102065.34
2023-05-17T20:25:37.883Z,102071.13
2023-05-17T20:28:04.417Z,102076.03
2023-05-17T20:30:31.078Z,102068.34
2023-05-17T20:32:57.792Z,102071.53
2023-05-17T20:35:24.214Z,102063.91
2023-05-17T20:37:50.734Z,102067.81
2023-05-17T20:40:17.150Z,102072.75
2023-05-17T20:42:45.652Z,102070.31
2023-05-17T20:45:14.522Z,102063.47
2023-05-17T20:47:41.233Z,102063.00
2023-05-17T20:50:08.983Z,102071.22
2023-05-17T20:52:39.441Z,102073.31
2023-05-17T20:55:08.540Z,102070.88
2023-05-17T20:57:35.034Z,102082.88
2023-05-17T21:00:02.386Z,102071.53
2023-05-17T21:02:28.820Z,102077.31
2023-05-17T21:04:55.301Z,102072.31
2023-05-17T21:07:26.277Z,102072.69
2023-05-17T21:09:52.654Z,102066.84
2023-05-17T21:12:19.230Z,102069.06
2023-05-17T21:14:48.100Z,102070.41
2023-05-17T21:17:16.845Z,102070.78
2023-05-17T21:19:43.287Z,102081.06
2023-05-17T21:22:09.702Z,102067.16
2023-05-17T21:24:36.152Z,102066.69
2023-05-17T21:27:02.976Z,102061.72
2023-05-17T21:29:29.355Z,102061.97
2023-05-17T21:31:55.790Z,102066.72
2023-05-17T21:34:22.247Z,102065.28
2023-05-17T21:36:48.659Z,102066.38
2023-05-17T21:39:15.074Z,102059.53
2023-05-17T21:41:41.498Z,102075.03
2023-05-17T21:44:07.965Z,102070.78
2023-05-17T21:46:34.457Z,102065.66
2023-05-17T21:49:00.822Z,102069.44
2023-05-17T21:51:27.230Z,102060.66
2023-05-17T21:53:53.605Z,102064.44
2023-05-17T21:56:20.333Z,102064.56
2023-05-17T21:58:46.799Z,102064.69
2023-05-17T22:01:13.529Z,102065.78
2023-05-17T22:03:40.097Z,102063.34
2023-05-17T22:06:06.634Z,102067.97
2023-05-17T22:08:33.016Z,102076.28
2023-05-17T22:10:59.420Z,102074.81
2023-05-17T22:13:26.712Z,102067.00
2023-05-17T22:15:56.899Z,102084.06
2023-05-17T22:18:23.530Z,102076.22
2023-05-17T22:20:53.169Z,102082.69
2023-05-17T22:23:20.042Z,102073.94
2023-05-17T22:25:46.816Z,102081.22
2023-05-17T22:28:13.318Z,102086.72
2023-05-17T22:30:39.763Z,102086.09
2023-05-17T22:33:06.440Z,102086.09
2023-05-17T22:35:32.897Z,102100.50
2023-05-17T22:37:59.355Z,102095.25
2023-05-17T22:40:26.003Z,102094.50
2023-05-17T22:42:52.499Z,102106.22
2023-05-17T22:45:18.951Z,102089.38
2023-05-17T22:47:46.814Z,102097.66
2023-05-17T22:50:15.648Z,102099.59
2023-05-17T22:52:42.734Z,102096.19
2023-05-17T22:55:10.581Z,102104.47
2023-05-17T22:57:37.059Z,102103.72
2023-05-17T23:00:09.146Z,102103.97
2023-05-17T23:02:35.912Z,102108.59
2023-05-17T23:05:03.837Z,102099.94
2023-05-17T23:07:38.048Z,102101.88
2023-05-17T23:10:06.769Z,102097.59
2023-05-17T23:12:33.425Z,102098.69
2023-05-17T23:14:59.811Z,102099.78
2023-05-17T23:17:32.230Z,102096.41
2023-05-17T23:20:07.390Z,102103.69
2023-05-17T23:22:34.496Z,102099.41
2023-05-17T23:25:03.306Z,102102.19
2023-05-17T23:27:30.821Z,102102.34
2023-05-17T23:29:57.684Z,102097.19
2023-05-17T23:32:24.706Z,102110.72
2023-05-17T23:34:54.076Z,102105.59
2023-05-17T23:37:20.993Z,102107.53
2023-05-17T23:39:47.357Z,102106.78
2023-05-17T23:42:13.721Z,102107.13
2023-05-17T23:44:43.074Z,102109.94
2023-05-17T23:47:12.440Z,102101.25
2023-05-17T23:49:39.094Z,102105.91
2023-05-17T23:52:11.042Z,102098.94
2023-05-17T23:54:38.712Z,102106.22
2023-05-17T23:57:06.266Z,102107.41
2023-05-17T23:59:33.229Z,102106.69
